Matrah, Oman
Current Conditions -  °F | °C
As of 1:50 PM on Wednesday 22 Oct 2014 (Local Time) from EQMN Reporting Station
Clear Clear  
Wind Chill: 100°   Ceiling: Unl
Heat Index: 100°   Visibility: 6mi
Dew Point: 39°   Wind: 13mph
Humidity: 12%   Direction: 50°NE
Pressure: 29.88"   Gusts: NA
Location:  23.61°N, 58.54°E
Report Text: EQMN 220950Z 05011KT 9999 SKC 38/04 Q1012 BLU NOSIG
Loading
Personal Weather Stations






























Interactive Weather Map
Tropical Storm Tracking
New forecast layout! Learn more

10-Day Weather Forecast

Advertisements
Track Severe Weather on mobile